• Join FlightAware (Why Join?)
  • Login
  • US Flag 
08:57PM EDT


 

Airport Tracker/Info


-or-


 

Live Flight TrackerFlight Track Log ✈ FFT907 ✈ 03-Sep-2013 ✈ KTTN - KMDW

Flight Track Log - Related Links

Times and Time Zones

All times are in EDT time to prevent confusion due to time zone crossing. See the FFT907 flight status page for this flight to view local times or setup timezone preferences in your user account.

Time Position Orientation Groundspeed Altitude Reporting Facility
EDT Latitude Longitude Course Direction KTS MPH feet Rate Location/Type
11:51AM 40.2833 -74.8000 323° Northwest 156 180 900  Level Philadelphia TRACON
11:52AM 40.3303 -74.8575 317° Northwest 242 278 3,100 1,320 Climbing New York Center
11:53AM 40.3397 -74.9508 278° West 262 302 4,000 1,740 Climbing New York Center
11:54AM 40.3219 -75.0394 255° West 255 293 6,600 2,820 Climbing New York Center
11:55AM 40.3214 -75.1103 269° West 300 345 9,700 2,400 Climbing New York Center
11:56AM 40.3050 -75.2100 258° West 288 331 11,500 1,620 Climbing New York Center
11:57AM 40.2437 -75.5937 323° Northwest  Level FlightAware Approximate
11:57AM 40.2778 -75.3281 253° West 301 346 13,000  Level New York Center
11:58AM 40.2478 -75.4511 252° West 335 386 13,000 1,200 Level New York Center
11:59AM 40.2325 -75.5750 261° West 356 410 15,500 1,980 Climbing New York Center
12:00PM 40.2956 -75.6639 313° West 331 381 17,000 720 Climbing New York Center
12:01PM 40.3661 -75.7725 310° West 361 415 17,000 840 Level New York Center
12:02PM 40.4378 -75.8975 307° West 391 450 18,700 2,160 Climbing New York Center
12:03PM 40.4558 -76.0081 282° West 374 430 21,400 2,400 Climbing New York Center
12:04PM 40.4792 -76.1381 283° West 359 413 23,500 1,920 Climbing New York Center
12:05PM 40.5003 -76.2681 282° West 364 419 25,300 1,740 Climbing New York Center
12:06PM 40.5231 -76.4036 283° West 369 425 27,000 1,740 Climbing New York Center
12:08PM 40.5681 -76.6753 282° West 382 440 30,600 1,320 Climbing New York Center
12:09PM 40.5922 -76.8167 283° West 382 440 31,100 900 Climbing New York Center
12:10PM 40.6181 -76.9639 283° West 398 458 32,400 1,380 Climbing New York Center
12:11PM 40.6414 -77.1111 282° West 408 470 33,900 1,380 Climbing New York Center
12:12PM 40.6686 -77.2667 283° West 408 470 35,200 1,020 Climbing New York Center
12:14PM 40.7075 -77.5097 282° West 400 460 36,700 720 Climbing Cleveland Center
12:15PM 40.7300 -77.6539 282° West 400 460 37,300 600 Climbing Cleveland Center
12:16PM 40.7522 -77.7900 282° West 408 470 38,000 300 Climbing Cleveland Center
12:17PM 40.7744 -77.9344 282° West 408 470 38,000  Level Cleveland Center
12:18PM 40.7986 -78.0817 282° West 408 470 38,000  Level Cleveland Center
12:19PM 40.8206 -78.2289 281° West 413 475 38,000  Level Cleveland Center
12:20PM 40.8489 -78.3953 283° West 418 481 38,100  Climbing Cleveland Center
12:21PM 40.8725 -78.5483 282° West 424 488 38,000 -60 Descending Cleveland Center
12:22PM 40.8939 -78.6961 281° West 424 488 38,000  Level Cleveland Center
12:23PM 40.9169 -78.8383 282° West 424 488 38,000 -60 Level Cleveland Center
12:24PM 40.9378 -78.9833 281° West 414 476 37,900  Descending Cleveland Center
12:25PM 40.9586 -79.1286 281° West 409 471 38,000  Climbing Cleveland Center
12:26PM 40.9789 -79.2739 281° West 409 471 38,000  Level Cleveland Center
12:27PM 41.0014 -79.4222 281° West 409 471 38,000  Level Cleveland Center
12:28PM 41.0194 -79.5594 280° West 415 478 38,000  Level Cleveland Center
12:29PM 41.0414 -79.7078 281° West 415 478 38,100  Climbing Cleveland Center
12:30PM 41.0633 -79.8561 281° West 415 478 38,000 -60 Descending Cleveland Center
12:31PM 41.0831 -80.0047 280° West 415 478 38,000  Level Cleveland Center
12:32PM 41.1044 -80.1561 281° West 415 478 38,000  Level Cleveland Center
12:33PM 41.1236 -80.3047 280° West 410 472 38,000  Level Cleveland Center
12:34PM 41.1447 -80.4700 280° West 415 478 38,000  Level Cleveland Center
12:35PM 41.1658 -80.6189 281° West 415 478 38,000  Level Cleveland Center
12:36PM 41.1844 -80.7708 279° West 415 478 38,000  Level Cleveland Center
12:37PM 41.2028 -80.9225 279° West 415 478 38,000  Level Cleveland Center
12:38PM 41.2211 -81.0553 280° West 415 478 38,000  Level Cleveland Center
12:39PM 41.2392 -81.2017 279° West 410 472 38,000 -60 Level Cleveland Center
12:40PM 41.2569 -81.3456 279° West 405 466 37,900  Descending Cleveland Center
12:41PM 41.2769 -81.4839 281° West 399 459 38,000  Climbing Cleveland Center
12:42PM 41.2964 -81.6278 280° West 399 459 38,000  Level Cleveland Center
12:43PM 41.3139 -81.7747 279° West 399 459 38,000  Level Cleveland Center
12:44PM 41.3308 -81.9186 279° West 399 459 38,000  Level Cleveland Center
12:45PM 41.3481 -82.0631 279° West 399 459 38,000  Level Cleveland Center
12:46PM 41.3606 -82.2069 277° West 399 459 38,000  Level Cleveland Center
12:47PM 41.3689 -82.3511 274° West 404 465 38,000  Level Cleveland Center
12:48PM 41.3769 -82.5008 274° West 404 465 38,000  Level Cleveland Center
12:49PM 41.3847 -82.6478 274° West 404 465 38,000  Level Cleveland Center
12:50PM 41.3944 -82.7975 275° West 404 465 38,000  Level Cleveland Center
12:51PM 41.3997 -82.9500 273° West 411 473 38,000  Level Cleveland Center
12:52PM 41.4108 -83.1108 275° West 411 473 38,000 -360 Level Cleveland Center
12:53PM 41.4158 -83.2581 273° West 400 460 37,300 -900 Descending Cleveland Center
12:54PM 41.4228 -83.4050 274° West 400 460 36,300 -660 Descending Cleveland Center
12:55PM 41.4294 -83.5522 274° West 405 466 36,000 -180 Descending Cleveland Center
12:56PM 41.4383 -83.6911 275° West 399 459 36,000  Level Cleveland Center
12:57PM 41.4447 -83.8381 273° West 399 459 36,000  Level Cleveland Center
12:59PM 41.4558 -84.0639 274° West 394 453 36,000  Level Chicago Center
01:00PM 41.4633 -84.2075 274° West 389 448 36,000 -480 Level Chicago Center
01:01PM 41.4694 -84.3822 273° West 394 453 35,100 -1,980 Descending Chicago Center
01:02PM 41.4761 -84.5325 273° West 404 465 32,000 -2,520 Descending Chicago Center
01:03PM 41.4819 -84.6839 273° West 410 472 30,000 -1,020 Descending Chicago Center
01:04PM 41.4872 -84.8367 273° West 412 474 30,000 -60 Level Chicago Center
01:05PM 41.4931 -84.9881 273° West 409 471 29,900 -540 Descending Chicago Center
01:06PM 41.4975 -85.1394 272° West 408 470 28,900 -1,500 Descending Chicago Center
01:07PM 41.5022 -85.2914 272° West 408 470 26,800 -2,280 Descending Chicago Center
01:08PM 41.5067 -85.4714 272° West 398 458 24,200 -2,400 Descending Chicago Center
01:09PM 41.5119 -85.6178 273° West 391 450 21,900 -2,100 Descending Chicago Center
01:10PM 41.5167 -85.7553 273° West 373 429 20,000 -1,860 Descending Chicago Center
01:11PM 41.5208 -85.8867 272° West 357 411 18,100 -1,800 Descending Chicago Center
01:12PM 41.5239 -86.0167 272° West 351 404 16,300 -1,800 Descending Chicago Center
01:13PM 41.5236 -86.1450 270° West 347 399 14,500 -1,740 Descending Chicago Center
01:14PM 41.5228 -86.2686 270° West 337 388 12,800 -1,740 Descending Chicago Center
01:15PM 41.5228 -86.3886 270° West 325 374 11,000 -1,260 Descending Chicago Center
01:16PM 41.5208 -86.5286 269° West 314 361 10,200 -540 Descending Chicago Center
01:17PM 41.5203 -86.6356 270° West 288 331 9,900 -300 Descending Chicago Center
01:19PM 41.5206 -86.7333 270° West 281 323 9,600 -960 Descending Chicago Center
01:20PM 41.5189 -86.8575 269° West 281 323 8,000 -1,140 Descending Chicago Center
01:21PM 41.5175 -86.9592 269° West 277 319 7,300 -720 Descending Chicago Center
01:22PM 41.5169 -87.0592 270° West 272 313 6,600 -660 Descending Chicago Center
01:23PM 41.5228 -87.1603 274° West 273 314 6,000 -360 Descending Chicago Center
01:24PM 41.5294 -87.2603 275° West 272 313 5,900 -60 Descending Chicago Center
01:25PM 41.5339 -87.3794 273° West 271 312 5,900 -420 Level Chicago Center
01:26PM 41.5731 -87.4567 304° West 264 304 5,100 -900 Descending Chicago Center
01:27PM 41.6164 -87.5153 315° West 240 276 4,100 -600 Descending Chicago Center
01:28PM 41.6528 -87.5669 313° West 218 251 3,900 -420 Descending Chicago Center
01:29PM 41.6853 -87.6128 314° West 193 222 3,300 -900 Descending Chicago Center
01:30PM 41.7253 -87.6689 314° West 181 208 2,100 -1,020 Descending Chicago Center
01:31PM 41.7572 -87.7131 314° West 175 201 1,300 -600 Descending Chicago Center
01:32PM 41.7786 -87.7442 313° West 161 185 900 -420 Descending Chicago Center
01:34PM 41.7833 -87.7500 334° Northwest  Level FlightAware Approximate